Welcome to Northern Hawkes Bay. New Zealand.
PWS Header
      nz Flag



Hit Counter


W3C Valid W3C Valid logo


    Wairoa

Select any of the Stations below to visit their websites.










Historic Data from Weather Underground
Select the location of interest below. Wairoa is the default. Please have patience, this Data is slow to load in.
Northern Hawkes Bay Historical Data
Daily Summary for November 9, 2017 Units:  Metric    English   Both
« Previous Day
Next Day »
Daily Weekly Monthly Yearly Custom
  High: Low: Average:
Temperature: 24.4 °C 9.5 °C 15.9 °C
Dew Point: 13.6 °C 4.0 °C 10 °C
Humidity: 98% 40% 70%
Wind Speed: 15.8km/h 0.0km/h 4.6km/h
Wind Gust: 27.0km/h - -
Wind- - South
Pressure: 1016.8 hPa 1010.7 hPa -
Precipitation: 0.0 mm    
Historical Graphs
 
 
Tabular Data for November 9, 2017
Time Temperature Dew Point Pressure Wind Wind Speed Wind Gust Humidity Rainfall Rate (Hourly) solar
00:00 12.6 °C 11.3 °C 1014.1 hPa Calm   1.1 km/h 92% 0.0 mm 0 W/m2
00:05 12.5 °C 11.2 °C 1014.1 hPa Calm   5.0 km/h 92% 0.0 mm 0 W/m2
00:10 12.3 °C 11.2 °C 1013.8 hPa Calm   5.0 km/h 93% 0.0 mm 0 W/m2
00:15 12.2 °C 11.1 °C 1013.8 hPa Calm   2.6 km/h 93% 0.0 mm 0 W/m2
00:20 12.1 °C 11.0 °C 1013.8 hPa North 2.6 km/h 5.0 km/h 93% 0.0 mm 0 W/m2
00:25 12.0 °C 10.9 °C 1013.8 hPa Calm   5.0 km/h 93% 0.0 mm 0 W/m2
00:30 11.9 °C 10.9 °C 1014.1 hPa Calm   3.5 km/h 94% 0.0 mm 0 W/m2
00:35 11.8 °C 10.7 °C 1013.8 hPa Calm   1.1 km/h 93% 0.0 mm 0 W/m2
00:40 11.8 °C 10.7 °C 1014.1 hPa NNW 1.1 km/h 3.5 km/h 93% 0.0 mm 0 W/m2
00:45 11.8 °C 10.7 °C 1014.1 hPa NNW 1.1 km/h 3.5 km/h 93% 0.0 mm 0 W/m2
00:50 11.7 °C 10.8 °C 1014.1 hPa Calm   5.0 km/h 94% 0.0 mm 0 W/m2
00:55 11.5 °C 10.6 °C 1014.1 hPa Calm   5.0 km/h 94% 0.0 mm 0 W/m2
01:05 11.3 °C 10.4 °C 1014.1 hPa NW 1.1 km/h 5.0 km/h 94% 0.0 mm 0 W/m2
01:10 11.3 °C 10.4 °C 1014.4 hPa Calm   5.0 km/h 94% 0.0 mm 0 W/m2
01:16 11.2 °C 10.4 °C 1014.4 hPa Calm   3.5 km/h 95% 0.0 mm 0 W/m2
01:21 11.2 °C 10.4 °C 1014.4 hPa Calm   2.6 km/h 95% 0.0 mm 0 W/m2
01:26 11.3 °C 10.6 °C 1014.1 hPa Calm   2.6 km/h 95% 0.0 mm 0 W/m2
01:31 11.4 °C 10.6 °C 1014.4 hPa Calm   2.6 km/h 95% 0.0 mm 0 W/m2
01:36 11.4 °C 10.6 °C 1014.1 hPa North 1.1 km/h 2.6 km/h 95% 0.0 mm 0 W/m2
01:41 11.5 °C 10.7 °C 1014.4 hPa Calm   3.5 km/h 95% 0.0 mm 0 W/m2
01:46 11.6 °C 10.7 °C 1014.4 hPa Calm   3.5 km/h 94% 0.0 mm 0 W/m2
01:51 11.6 °C 10.7 °C 1014.4 hPa Calm   3.5 km/h 94% 0.0 mm 0 W/m2
01:56 11.6 °C 10.7 °C 1014.4 hPa Calm   3.5 km/h 94% 0.0 mm 0 W/m2
02:01 11.4 °C 10.4 °C 1014.4 hPa Calm   3.5 km/h 94% 0.0 mm 0 W/m2
02:06 11.3 °C 10.2 °C 1014.4 hPa Calm   2.6 km/h 93% 0.0 mm 0 W/m2
02:11 11.1 °C 10.0 °C 1014.4 hPa Calm   2.6 km/h 93% 0.0 mm 0 W/m2
02:16 11.1 °C 10.2 °C 1014.4 hPa Calm   2.6 km/h 94% 0.0 mm 0 W/m2
02:21 11.1 °C 10.2 °C 1014.4 hPa Calm   3.5 km/h 94% 0.0 mm 0 W/m2
02:26 11.1 °C 10.2 °C 1014.4 hPa North 1.1 km/h 3.5 km/h 94% 0.0 mm 0 W/m2
02:31 11.1 °C 10.2 °C 1014.8 hPa NW 1.1 km/h 3.5 km/h 94% 0.0 mm 0 W/m2
02:36 11.1 °C 10.2 °C 1014.4 hPa NW 1.1 km/h 3.5 km/h 94% 0.0 mm 0 W/m2
02:41 11.0 °C 10.1 °C 1014.4 hPa NW 2.6 km/h 5.0 km/h 94% 0.0 mm 0 W/m2
02:46 11.0 °C 10.1 °C 1014.4 hPa NW 1.1 km/h 6.1 km/h 94% 0.0 mm 0 W/m2
02:51 10.9 °C 10.1 °C 1014.8 hPa NW 1.1 km/h 6.1 km/h 95% 0.0 mm 0 W/m2
02:56 10.8 °C 10.2 °C 1014.8 hPa NW 5.0 km/h 6.1 km/h 96% 0.0 mm 0 W/m2
03:01 10.7 °C 10.1 °C 1014.8 hPa NNW 1.1 km/h 6.1 km/h 96% 0.0 mm 0 W/m2
03:06 10.6 °C 10.0 °C 1014.4 hPa North 1.1 km/h 6.1 km/h 96% 0.0 mm 0 W/m2
03:11 10.6 °C 10.0 °C 1014.4 hPa North 1.1 km/h 3.5 km/h 96% 0.0 mm 0 W/m2
03:16 10.6 °C 10.0 °C 1014.8 hPa NW 1.1 km/h 5.0 km/h 96% 0.0 mm 0 W/m2
03:26 10.5 °C 9.7 °C 1014.4 hPa NW 1.1 km/h 6.1 km/h 95% 0.0 mm 0 W/m2
03:31 10.4 °C 9.6 °C 1014.4 hPa NW 2.6 km/h 5.0 km/h 95% 0.0 mm 0 W/m2
03:36 10.3 °C 9.7 °C 1014.4 hPa NNW 1.1 km/h 5.0 km/h 96% 0.0 mm 0 W/m2
03:41 10.3 °C 9.7 °C 1014.8 hPa NNW 3.5 km/h 6.1 km/h 96% 0.0 mm 0 W/m2
03:46 10.3 °C 9.7 °C 1014.8 hPa NW 3.5 km/h 7.2 km/h 96% 0.0 mm 0 W/m2
03:51 10.2 °C 9.7 °C 1014.8 hPa NW 2.6 km/h 7.2 km/h 97% 0.0 mm 0 W/m2
03:56 10.2 °C 9.7 °C 1014.8 hPa NW 2.6 km/h 7.2 km/h 97% 0.0 mm 0 W/m2
04:01 10.1 °C 9.7 °C 1014.8 hPa NW 5.0 km/h 7.2 km/h 97% 0.0 mm 0 W/m2
04:06 10.1 °C 9.7 °C 1014.8 hPa NW 3.5 km/h 9.7 km/h 97% 0.0 mm 0 W/m2
04:11 10.1 °C 9.7 °C 1014.8 hPa NW 1.1 km/h 9.7 km/h 97% 0.0 mm 0 W/m2
04:16 10.0 °C 9.6 °C 1014.8 hPa NW 1.1 km/h 7.2 km/h 97% 0.0 mm 0 W/m2
04:21 10.0 °C 9.6 °C 1014.8 hPa NNW 3.5 km/h 6.1 km/h 97% 0.0 mm 0 W/m2
04:26 9.9 °C 9.6 °C 1014.8 hPa NNW 2.6 km/h 6.1 km/h 98% 0.0 mm 0 W/m2
04:31 9.9 °C 9.6 °C 1014.8 hPa NNW 3.5 km/h 6.1 km/h 98% 0.0 mm 0 W/m2
04:36 9.8 °C 9.5 °C 1014.8 hPa NNW 3.5 km/h 7.2 km/h 98% 0.0 mm 0 W/m2
04:41 9.8 °C 9.3 °C 1014.8 hPa NNW 3.5 km/h 7.2 km/h 97% 0.0 mm 0 W/m2
04:46 9.8 °C 9.3 °C 1014.8 hPa NNW 3.5 km/h 8.7 km/h 97% 0.0 mm 0 W/m2
04:51 9.8 °C 9.3 °C 1015.1 hPa NW 2.6 km/h 8.7 km/h 97% 0.0 mm 0 W/m2
04:56 9.8 °C 9.3 °C 1015.1 hPa NW 6.1 km/h 8.7 km/h 97% 0.0 mm 0 W/m2
05:01 9.7 °C 9.2 °C 1015.1 hPa NW 3.5 km/h 8.7 km/h 97% 0.0 mm 0 W/m2
05:06 9.7 °C 9.1 °C 1015.1 hPa NNW 1.1 km/h 7.2 km/h 96% 0.0 mm 0 W/m2
05:11 9.7 °C 9.1 °C 1015.1 hPa NNW 1.1 km/h 6.1 km/h 96% 0.0 mm 0 W/m2
05:16 9.7 °C 9.1 °C 1015.1 hPa North 1.1 km/h 5.0 km/h 96% 0.0 mm 0 W/m2
05:21 9.6 °C 9.0 °C 1014.8 hPa NNW 3.5 km/h 6.1 km/h 96% 0.0 mm 0 W/m2
05:26 9.6 °C 9.0 °C 1015.1 hPa NNW 1.1 km/h 6.1 km/h 96% 0.0 mm 0 W/m2
05:31 9.6 °C 9.0 °C 1015.1 hPa Calm   6.1 km/h 96% 0.0 mm 0 W/m2
05:41 9.6 °C 9.0 °C 1015.5 hPa NNW 3.5 km/h 6.1 km/h 96% 0.0 mm 0 W/m2
05:46 9.6 °C 9.0 °C 1015.1 hPa Calm   6.1 km/h 96% 0.0 mm 0 W/m2
05:51 9.6 °C 8.8 °C 1015.1 hPa North 2.6 km/h 6.1 km/h 95% 0.0 mm 0 W/m2
05:56 9.6 °C 8.8 °C 1015.1 hPa NNW 1.1 km/h 7.2 km/h 95% 0.0 mm 0 W/m2
06:01 9.6 °C 8.8 °C 1015.5 hPa NNW 2.6 km/h 7.2 km/h 95% 0.0 mm 3 W/m2
06:06 9.5 °C 8.7 °C 1015.5 hPa NNW 3.5 km/h 9.7 km/h 95% 0.0 mm 7 W/m2
06:11 9.5 °C 8.7 °C 1015.5 hPa NNW 5.0 km/h 13.4 km/h 95% 0.0 mm 9 W/m2
06:16 9.5 °C 8.9 °C 1015.5 hPa North 6.1 km/h 13.4 km/h 96% 0.0 mm 17 W/m2
06:21 9.5 °C 8.9 °C 1015.5 hPa North 3.5 km/h 13.4 km/h 96% 0.0 mm 23 W/m2
06:26 9.6 °C 9.0 °C 1015.5 hPa North 6.1 km/h 9.7 km/h 96% 0.0 mm 27 W/m2
06:31 9.7 °C 9.1 °C 1015.5 hPa North 2.6 km/h 9.7 km/h 96% 0.0 mm 32 W/m2
06:36 9.8 °C 9.2 °C 1015.5 hPa North 5.0 km/h 9.7 km/h 96% 0.0 mm 42 W/m2
06:41 10.0 °C 9.2 °C 1015.5 hPa NNW 3.5 km/h 9.7 km/h 95% 0.0 mm 75 W/m2
06:46 10.2 °C 9.3 °C 1015.8 hPa NW 3.5 km/h 9.7 km/h 94% 0.0 mm 48 W/m2
06:51 10.5 °C 9.6 °C 1015.8 hPa NNW 5.0 km/h 9.7 km/h 94% 0.0 mm 98 W/m2
06:56 10.7 °C 9.6 °C 1015.8 hPa North 6.1 km/h 9.7 km/h 93% 0.0 mm 54 W/m2
07:01 10.6 °C 9.2 °C 1015.8 hPa North 5.0 km/h 12.2 km/h 91% 0.0 mm 83 W/m2
07:06 10.7 °C 9.1 °C 1015.8 hPa NNW 7.2 km/h 12.2 km/h 90% 0.0 mm 87 W/m2
07:11 10.7 °C 9.1 °C 1015.8 hPa NW 7.2 km/h 12.2 km/h 90% 0.0 mm 125 W/m2
07:16 11.0 °C 9.1 °C 1015.5 hPa NW 7.2 km/h 13.4 km/h 88% 0.0 mm 82 W/m2
07:21 11.0 °C 8.9 °C 1015.8 hPa NW 8.7 km/h 13.4 km/h 87% 0.0 mm 142 W/m2
07:26 11.7 °C 9.6 °C 1016.1 hPa NNW 11.1 km/h 13.4 km/h 87% 0.0 mm 169 W/m2
07:31 12.1 °C 9.5 °C 1016.1 hPa NNW 3.5 km/h 13.4 km/h 84% 0.0 mm 181 W/m2
07:36 12.3 °C 9.3 °C 1016.1 hPa North 7.2 km/h 14.8 km/h 82% 0.0 mm 89 W/m2
07:41 11.8 °C 8.8 °C 1016.1 hPa North 3.5 km/h 14.8 km/h 82% 0.0 mm 68 W/m2
07:46 11.6 °C 8.8 °C 1016.1 hPa NNW 3.5 km/h 11.1 km/h 83% 0.0 mm 139 W/m2
07:51 12.1 °C 9.3 °C 1015.8 hPa NNW 5.0 km/h 9.7 km/h 83% 0.0 mm 190 W/m2
07:56 12.3 °C 9.3 °C 1016.1 hPa NNW 8.7 km/h 11.1 km/h 82% 0.0 mm 112 W/m2
08:01 12.2 °C 9.1 °C 1016.5 hPa NNW 5.0 km/h 11.1 km/h 81% 0.0 mm 154 W/m2
08:06 12.9 °C 9.9 °C 1016.1 hPa North 5.0 km/h 8.7 km/h 82% 0.0 mm 276 W/m2
08:11 13.5 °C 9.7 °C 1016.1 hPa NNW 3.5 km/h 8.7 km/h 78% 0.0 mm 132 W/m2
08:16 13.5 °C 9.7 °C 1016.1 hPa NNW 2.6 km/h 8.7 km/h 78% 0.0 mm 186 W/m2
08:21 14.0 °C 9.8 °C 1016.1 hPa NNW 3.5 km/h 7.2 km/h 76% 0.0 mm 193 W/m2
08:26 14.4 °C 10.1 °C 1016.5 hPa NNW 5.0 km/h 11.1 km/h 75% 0.0 mm 311 W/m2
08:31 14.4 °C 9.8 °C 1016.5 hPa NNW 5.0 km/h 11.1 km/h 74% 0.0 mm 268 W/m2
08:36 14.7 °C 9.9 °C 1016.5 hPa NNW 2.6 km/h 9.7 km/h 73% 0.0 mm 231 W/m2
08:41 14.9 °C 9.9 °C 1016.5 hPa NNW 3.5 km/h 7.2 km/h 72% 0.0 mm 289 W/m2
08:46 15.2 °C 9.8 °C 1016.5 hPa Calm   7.2 km/h 70% 0.0 mm 323 W/m2
08:51 16.0 °C 10.3 °C 1016.5 hPa North 1.1 km/h 7.2 km/h 69% 0.0 mm 194 W/m2
08:56 16.1 °C 9.8 °C 1016.5 hPa NNE 1.1 km/h 6.1 km/h 66% 0.0 mm 303 W/m2
09:01 16.5 °C 9.7 °C 1016.5 hPa Calm   6.1 km/h 64% 0.0 mm 257 W/m2
09:06 17.5 °C 9.9 °C 1016.5 hPa Calm   3.5 km/h 61% 0.0 mm 236 W/m2
09:11 18.1 °C 9.4 °C 1016.5 hPa Calm   3.5 km/h 57% 0.0 mm 326 W/m2
09:16 17.9 °C 5.8 °C 1016.5 hPa Calm   6.1 km/h 45% 0.0 mm 409 W/m2
09:21 18.2 °C 5.4 °C 1016.5 hPa ESE 1.1 km/h 6.1 km/h 43% 0.0 mm 393 W/m2
09:26 18.4 °C 5.9 °C 1016.8 hPa South 2.6 km/h 8.7 km/h 44% 0.0 mm 464 W/m2
09:31 18.4 °C 4.6 °C 1016.8 hPa SSE 5.0 km/h 8.7 km/h 40% 0.0 mm 452 W/m2
09:36 18.0 °C 4.2 °C 1016.5 hPa South 1.1 km/h 9.7 km/h 40% 0.0 mm 466 W/m2
09:41 18.1 °C 5.0 °C 1016.8 hPa South 2.6 km/h 9.7 km/h 42% 0.0 mm 481 W/m2
09:46 18.3 °C 4.8 °C 1016.8 hPa South 1.1 km/h 7.2 km/h 41% 0.0 mm 499 W/m2
09:51 18.3 °C 5.5 °C 1016.8 hPa South 1.1 km/h 8.7 km/h 43% 0.0 mm 515 W/m2
09:56 18.2 °C 5.1 °C 1016.8 hPa SSW 6.1 km/h 8.7 km/h 42% 0.0 mm 527 W/m2
10:01 17.6 °C 4.2 °C 1016.8 hPa SSW 8.7 km/h 14.8 km/h 41% 0.0 mm 546 W/m2
10:06 17.5 °C 4.4 °C 1016.8 hPa South 3.5 km/h 14.8 km/h 42% 0.0 mm 567 W/m2
10:11 17.9 °C 4.8 °C 1016.8 hPa South 5.0 km/h 11.1 km/h 42% 0.0 mm 587 W/m2
10:16 17.4 °C 4.0 °C 1016.8 hPa South 6.1 km/h 11.1 km/h 41% 0.0 mm 598 W/m2
10:21 17.4 °C 4.0 °C 1016.5 hPa South 5.0 km/h 11.1 km/h 41% 0.0 mm 301 W/m2
10:26 17.2 °C 4.2 °C 1016.8 hPa South 2.6 km/h 11.1 km/h 42% 0.0 mm 620 W/m2
10:31 18.0 °C 5.9 °C 1016.8 hPa South 6.1 km/h 9.7 km/h 45% 0.0 mm 643 W/m2
10:36 17.9 °C 5.5 °C 1016.8 hPa South 5.0 km/h 9.7 km/h 44% 0.0 mm 660 W/m2
10:41 17.6 °C 5.6 °C 1016.8 hPa SSE 9.7 km/h 12.2 km/h 45% 0.0 mm 685 W/m2
10:46 17.3 °C 5.6 °C 1016.5 hPa SSE 8.7 km/h 15.8 km/h 46% 0.0 mm 684 W/m2
10:51 17.3 °C 5.3 °C 1016.8 hPa South 5.0 km/h 15.8 km/h 45% 0.0 mm 708 W/m2
10:56 17.6 °C 6.2 °C 1016.5 hPa SSE 6.1 km/h 11.1 km/h 47% 0.0 mm 725 W/m2
11:01 17.5 °C 6.7 °C 1016.5 hPa SSE 3.5 km/h 14.8 km/h 49% 0.0 mm 793 W/m2
11:06 18.2 °C 7.0 °C 1016.5 hPa SSE 6.1 km/h 14.8 km/h 48% 0.0 mm 208 W/m2
11:11 17.4 °C 5.7 °C 1016.5 hPa SE 3.5 km/h 11.1 km/h 46% 0.0 mm 763 W/m2
11:16 17.3 °C 7.3 °C 1016.1 hPa SE 1.1 km/h 9.7 km/h 52% 0.0 mm 740 W/m2
11:21 17.7 °C 7.4 °C 1016.1 hPa SE 5.0 km/h 17.2 km/h 51% 0.0 mm 759 W/m2
11:26 18.2 °C 7.0 °C 1016.1 hPa ESE 6.1 km/h 17.2 km/h 48% 0.0 mm 777 W/m2
11:31 18.2 °C 6.7 °C 1016.5 hPa East 5.0 km/h 12.2 km/h 47% 0.0 mm 781 W/m2
11:36 18.3 °C 7.4 °C 1016.1 hPa ESE 5.0 km/h 12.2 km/h 49% 0.0 mm 793 W/m2
11:41 18.4 °C 8.1 °C 1016.1 hPa SE 6.1 km/h 13.4 km/h 51% 0.0 mm 797 W/m2
11:46 18.9 °C 7.7 °C 1015.8 hPa SE 8.7 km/h 17.2 km/h 48% 0.0 mm 801 W/m2
11:51 18.1 °C 7.8 °C 1015.8 hPa SE 7.2 km/h 19.5 km/h 51% 0.0 mm 793 W/m2
11:56 18.0 °C 8.6 °C 1015.5 hPa SSE 2.6 km/h 19.5 km/h 54% 0.0 mm 792 W/m2
12:01 18.4 °C 8.9 °C 1015.5 hPa SSE 7.2 km/h 13.4 km/h 54% 0.0 mm 798 W/m2
12:06 18.2 °C 9.0 °C 1015.5 hPa SE 9.7 km/h 17.2 km/h 55% 0.0 mm 796 W/m2
12:11 18.2 °C 9.0 °C 1015.5 hPa SE 3.5 km/h 17.2 km/h 55% 0.0 mm 798 W/m2
12:16 18.5 °C 8.4 °C 1015.5 hPa ESE 6.1 km/h 17.2 km/h 52% 0.0 mm 802 W/m2
12:21 18.3 °C 8.8 °C 1015.1 hPa ESE 6.1 km/h 17.2 km/h 54% 0.0 mm 800 W/m2
12:26 18.5 °C 9.3 °C 1015.1 hPa SE 8.7 km/h 18.3 km/h 55% 0.0 mm 800 W/m2
12:31 18.2 °C 9.0 °C 1015.1 hPa SSE 7.2 km/h 18.3 km/h 55% 0.0 mm 795 W/m2
12:36 18.3 °C 9.9 °C 1015.1 hPa SSE 9.7 km/h 18.3 km/h 58% 0.0 mm 796 W/m2
12:41 17.9 °C 9.6 °C 1015.1 hPa SE 8.7 km/h 20.9 km/h 58% 0.0 mm 790 W/m2
12:46 17.9 °C 10.3 °C 1015.1 hPa SE 6.1 km/h 20.9 km/h 61% 0.0 mm 788 W/m2
12:51 18.5 °C 10.8 °C 1015.1 hPa SE 9.7 km/h 19.5 km/h 61% 0.0 mm 793 W/m2
12:56 18.7 °C 10.8 °C 1015.1 hPa SE 12.2 km/h 17.2 km/h 60% 0.0 mm 792 W/m2
13:01 18.6 °C 10.9 °C 1015.1 hPa SE 11.1 km/h 19.5 km/h 61% 0.0 mm 784 W/m2
13:06 18.5 °C 11.1 °C 1015.1 hPa SE 5.0 km/h 19.5 km/h 62% 0.0 mm 779 W/m2
13:11 18.7 °C 11.5 °C 1014.8 hPa SE 7.2 km/h 19.5 km/h 63% 0.0 mm 779 W/m2
13:16 18.5 °C 11.8 °C 1014.8 hPa SE 5.0 km/h 19.5 km/h 65% 0.0 mm 770 W/m2
13:21 18.5 °C 12.1 °C 1014.8 hPa SE 11.1 km/h 23.3 km/h 66% 0.0 mm 762 W/m2
13:26 18.7 °C 12.2 °C 1014.4 hPa SE 8.7 km/h 23.3 km/h 66% 0.0 mm 755 W/m2
13:31 18.9 °C 12.7 °C 1014.4 hPa ESE 7.2 km/h 19.5 km/h 67% 0.0 mm 753 W/m2
13:36 19.0 °C 12.1 °C 1014.4 hPa ESE 5.0 km/h 20.9 km/h 64% 0.0 mm 747 W/m2
13:41 19.1 °C 12.2 °C 1014.1 hPa ESE 9.7 km/h 21.9 km/h 64% 0.0 mm 738 W/m2
13:46 19.1 °C 12.6 °C 1014.1 hPa SE 8.7 km/h 21.9 km/h 66% 0.0 mm 732 W/m2
13:51 18.9 °C 12.4 °C 1014.1 hPa SE 9.7 km/h 19.5 km/h 66% 0.0 mm 719 W/m2
13:56 19.4 °C 12.4 °C 1014.1 hPa SE 11.1 km/h 18.3 km/h 64% 0.0 mm 717 W/m2
14:01 19.6 °C 11.9 °C 1013.8 hPa SE 5.0 km/h 18.3 km/h 61% 0.0 mm 707 W/m2
14:06 19.9 °C 11.9 °C 1013.4 hPa ESE 8.7 km/h 18.3 km/h 60% 0.0 mm 703 W/m2
14:11 19.8 °C 12.1 °C 1013.4 hPa SE 6.1 km/h 18.3 km/h 61% 0.0 mm 693 W/m2
14:16 20.2 °C 11.4 °C 1013.4 hPa ESE 9.7 km/h 18.3 km/h 57% 0.0 mm 687 W/m2
14:21 20.1 °C 10.8 °C 1013.4 hPa SE 7.2 km/h 19.5 km/h 55% 0.0 mm 675 W/m2
14:26 20.2 °C 11.4 °C 1013.1 hPa SE 5.0 km/h 19.5 km/h 57% 0.0 mm 669 W/m2
14:31 20.6 °C 11.5 °C 1013.1 hPa SE 5.0 km/h 18.3 km/h 56% 0.0 mm 561 W/m2
14:36 20.6 °C 11.5 °C 1013.1 hPa SE 11.1 km/h 20.9 km/h 56% 0.0 mm 633 W/m2
14:41 20.8 °C 12.0 °C 1013.1 hPa SE 3.5 km/h 20.9 km/h 57% 0.0 mm 645 W/m2
14:46 20.9 °C 11.8 °C 1012.8 hPa SE 9.7 km/h 15.8 km/h 56% 0.0 mm 543 W/m2
14:51 21.1 °C 11.7 °C 1012.8 hPa ESE 9.7 km/h 18.3 km/h 55% 0.0 mm 627 W/m2
14:56 20.9 °C 12.1 °C 1012.8 hPa ESE 6.1 km/h 18.3 km/h 57% 0.0 mm 615 W/m2
15:01 20.5 °C 11.9 °C 1012.8 hPa ESE 7.2 km/h 21.9 km/h 58% 0.0 mm 477 W/m2
15:06 20.5 °C 11.4 °C 1012.4 hPa SE 7.2 km/h 21.9 km/h 56% 0.0 mm 576 W/m2
15:11 20.5 °C 11.9 °C 1012.8 hPa ESE 12.2 km/h 19.5 km/h 58% 0.0 mm 582 W/m2
15:16 20.5 °C 12.2 °C 1012.1 hPa ESE 7.2 km/h 27.0 km/h 59% 0.0 mm 427 W/m2
15:21 21.1 °C 12.3 °C 1012.1 hPa ESE 6.1 km/h 27.0 km/h 57% 0.0 mm 567 W/m2
15:26 21.0 °C 11.3 °C 1012.4 hPa SE 5.0 km/h 20.9 km/h 54% 0.0 mm 483 W/m2
15:31 21.1 °C 11.7 °C 1012.1 hPa SE 11.1 km/h 25.6 km/h 55% 0.0 mm 421 W/m2
15:36 20.6 °C 11.5 °C 1012.1 hPa ESE 11.1 km/h 25.6 km/h 56% 0.0 mm 389 W/m2
15:41 20.8 °C 11.7 °C 1012.1 hPa ESE 3.5 km/h 20.9 km/h 56% 0.0 mm 522 W/m2
15:46 21.4 °C 11.7 °C 1012.1 hPa ESE 3.5 km/h 17.2 km/h 54% 0.0 mm 519 W/m2
15:51 21.7 °C 12.6 °C 1012.1 hPa ESE 5.0 km/h 14.8 km/h 56% 0.0 mm 508 W/m2
15:56 22.0 °C 12.0 °C 1012.1 hPa ESE 8.7 km/h 17.2 km/h 53% 0.0 mm 450 W/m2
16:01 22.1 °C 12.7 °C 1012.1 hPa ESE 6.1 km/h 17.2 km/h 55% 0.0 mm 428 W/m2
16:06 21.9 °C 11.9 °C 1011.7 hPa ESE 13.4 km/h 19.5 km/h 53% 0.0 mm 471 W/m2
16:19 22.0 °C 12.8 °C 1011.7 hPa East 14.8 km/h 19.5 km/h 56% 0.0 mm 453 W/m2
16:24 21.6 °C 11.9 °C 1011.7 hPa East 7.2 km/h 20.9 km/h 54% 0.0 mm 439 W/m2
16:29 21.8 °C 12.4 °C 1011.4 hPa East 7.2 km/h 20.9 km/h 55% 0.0 mm 427 W/m2
16:46 23.1 °C 13.6 °C 1011.7 hPa ESE 3.5 km/h 12.2 km/h 55% 0.0 mm 391 W/m2
16:48 23.4 °C 13.3 °C 1011.4 hPa East 3.5 km/h 12.2 km/h 53% 0.0 mm 386 W/m2
16:51 23.6 °C 13.5 °C 1011.7 hPa East 1.1 km/h 12.2 km/h 53% 0.0 mm 379 W/m2
16:56 24.4 °C 13.3 °C 1011.4 hPa ESE 5.0 km/h 11.1 km/h 50% 0.0 mm 369 W/m2
16:57 24.2 °C 12.8 °C 1011.4 hPa ESE 8.7 km/h 13.4 km/h 49% 0.0 mm 367 W/m2
17:02 23.3 °C 12.3 °C 1011.4 hPa ESE 1.1 km/h 17.2 km/h 50% 0.0 mm 355 W/m2
17:07 23.1 °C 12.4 °C 1011.4 hPa ESE 11.1 km/h 20.9 km/h 51% 0.0 mm 268 W/m2
17:12 22.7 °C 12.7 °C 1011.4 hPa East 9.7 km/h 20.9 km/h 53% 0.0 mm 328 W/m2
17:17 22.9 °C 12.6 °C 1011.4 hPa ENE 14.8 km/h 18.3 km/h 52% 0.0 mm 313 W/m2
17:22 22.7 °C 12.3 °C 1011.4 hPa ENE 15.8 km/h 25.6 km/h 52% 0.0 mm 302 W/m2
17:27 22.6 °C 12.6 °C 1011.4 hPa ENE 8.7 km/h 25.6 km/h 53% 0.0 mm 285 W/m2
17:32 22.8 °C 12.4 °C 1011.1 hPa NE 5.0 km/h 21.9 km/h 52% 0.0 mm 275 W/m2
17:37 23.2 °C 12.5 °C 1011.1 hPa NE 8.7 km/h 18.3 km/h 51% 0.0 mm 266 W/m2
17:42 22.8 °C 12.4 °C 1011.4 hPa NE 7.2 km/h 14.8 km/h 52% 0.0 mm 253 W/m2
17:47 22.7 °C 12.7 °C 1011.4 hPa ENE 3.5 km/h 18.3 km/h 53% 0.0 mm 240 W/m2
17:52 22.4 °C 12.4 °C 1011.4 hPa ENE 8.7 km/h 20.9 km/h 53% 0.0 mm 227 W/m2
17:57 22.1 °C 12.1 °C 1011.4 hPa ENE 8.7 km/h 20.9 km/h 53% 0.0 mm 213 W/m2
18:02 22.2 °C 12.2 °C 1011.4 hPa NE 2.6 km/h 17.2 km/h 53% 0.0 mm 201 W/m2
18:07 22.4 °C 12.4 °C 1011.4 hPa NNE 5.0 km/h 19.5 km/h 53% 0.0 mm 191 W/m2
18:12 22.2 °C 12.2 °C 1011.4 hPa NNE 7.2 km/h 19.5 km/h 53% 0.0 mm 181 W/m2
18:17 22.1 °C 12.1 °C 1011.4 hPa NNE 11.1 km/h 17.2 km/h 53% 0.0 mm 71 W/m2
18:22 20.9 °C 12.3 °C 1011.1 hPa North 2.6 km/h 17.2 km/h 58% 0.0 mm 70 W/m2
18:27 20.6 °C 12.6 °C 1011.1 hPa NNE 5.0 km/h 15.8 km/h 60% 0.0 mm 55 W/m2
18:32 21.0 °C 12.9 °C 1011.1 hPa NNE 3.5 km/h 12.2 km/h 60% 0.0 mm 89 W/m2
18:37 20.6 °C 12.3 °C 1011.1 hPa NNE 11.1 km/h 18.3 km/h 59% 0.0 mm 47 W/m2
18:42 20.3 °C 12.3 °C 1011.1 hPa NNE 8.7 km/h 18.3 km/h 60% 0.0 mm 45 W/m2
18:47 20.1 °C 12.3 °C 1011.4 hPa NE 8.7 km/h 18.3 km/h 61% 0.0 mm 41 W/m2
18:52 20.0 °C 12.5 °C 1011.1 hPa NE 5.0 km/h 19.5 km/h 62% 0.0 mm 39 W/m2
18:57 19.8 °C 12.8 °C 1011.4 hPa NE 8.7 km/h 19.5 km/h 64% 0.0 mm 38 W/m2
19:02 19.7 °C 12.7 °C 1011.1 hPa NE 8.7 km/h 17.2 km/h 64% 0.0 mm 47 W/m2
19:07 19.6 °C 12.6 °C 1011.1 hPa NE 8.7 km/h 17.2 km/h 64% 0.0 mm 32 W/m2
19:12 19.6 °C 12.6 °C 1011.1 hPa NE 2.6 km/h 14.8 km/h 64% 0.0 mm 36 W/m2
19:17 19.3 °C 12.3 °C 1011.1 hPa NE 7.2 km/h 20.9 km/h 64% 0.0 mm 29 W/m2
19:22 19.1 °C 12.4 °C 1011.1 hPa NE 6.1 km/h 20.9 km/h 65% 0.0 mm 25 W/m2
19:27 18.9 °C 12.4 °C 1011.1 hPa NNE 3.5 km/h 18.3 km/h 66% 0.0 mm 27 W/m2
19:32 18.8 °C 12.3 °C 1011.1 hPa NE 7.2 km/h 18.3 km/h 66% 0.0 mm 25 W/m2
19:37 18.7 °C 12.2 °C 1011.1 hPa ENE 2.6 km/h 18.3 km/h 66% 0.0 mm 18 W/m2
19:42 18.5 °C 12.3 °C 1010.7 hPa ENE 2.6 km/h 18.3 km/h 67% 0.0 mm 13 W/m2
19:47 18.4 °C 12.2 °C 1011.1 hPa NNE 1.1 km/h 18.3 km/h 67% 0.0 mm 7 W/m2
19:52 18.3 °C 12.3 °C 1011.1 hPa North 6.1 km/h 9.7 km/h 68% 0.0 mm 4 W/m2
19:57 18.3 °C 12.1 °C 1011.1 hPa North 1.1 km/h 9.7 km/h 67% 0.0 mm 1 W/m2
20:02 18.2 °C 12.0 °C 1011.1 hPa Calm   8.7 km/h 67% 0.0 mm 0 W/m2
20:07 18.0 °C 11.8 °C 1011.1 hPa Calm   3.5 km/h 67% 0.0 mm 0 W/m2
20:12 17.7 °C 11.7 °C 1011.1 hPa Calm   3.5 km/h 68% 0.0 mm 0 W/m2
20:17 17.5 °C 11.6 °C 1010.7 hPa Calm   6.1 km/h 68% 0.0 mm 0 W/m2
20:22 17.5 °C 11.3 °C 1010.7 hPa Calm   6.1 km/h 67% 0.0 mm 0 W/m2
20:27 17.4 °C 11.0 °C 1010.7 hPa Calm   5.0 km/h 66% 0.0 mm 0 W/m2
20:32 17.3 °C 10.7 °C 1011.1 hPa North 3.5 km/h 7.2 km/h 65% 0.0 mm 0 W/m2
20:37 17.3 °C 10.2 °C 1010.7 hPa Calm   8.7 km/h 63% 0.0 mm 0 W/m2
20:42 17.2 °C 10.1 °C 1011.1 hPa Calm   8.7 km/h 63% 0.0 mm 0 W/m2
20:47 17.1 °C 9.8 °C 1011.1 hPa Calm   7.2 km/h 62% 0.0 mm 0 W/m2
20:57 16.9 °C 9.8 °C 1011.4 hPa North 3.5 km/h 12.2 km/h 63% 0.0 mm 0 W/m2
21:02 17.0 °C 9.4 °C 1011.4 hPa North 8.7 km/h 15.8 km/h 61% 0.0 mm 0 W/m2
21:07 17.0 °C 9.4 °C 1011.4 hPa Calm   15.8 km/h 61% 0.0 mm 0 W/m2
21:12 16.9 °C 9.6 °C 1011.4 hPa NNE 7.2 km/h 15.8 km/h 62% 0.0 mm 0 W/m2
21:17 16.7 °C 9.4 °C 1011.4 hPa North 7.2 km/h 15.8 km/h 62% 0.0 mm 0 W/m2
21:22 16.7 °C 9.4 °C 1011.4 hPa North 5.0 km/h 15.8 km/h 62% 0.0 mm 0 W/m2
21:27 16.7 °C 9.4 °C 1011.7 hPa North 5.0 km/h 15.8 km/h 62% 0.0 mm 0 W/m2
21:32 16.6 °C 9.3 °C 1011.7 hPa North 5.0 km/h 15.8 km/h 62% 0.0 mm 0 W/m2
21:37 16.5 °C 9.4 °C 1011.7 hPa North 6.1 km/h 15.8 km/h 63% 0.0 mm 0 W/m2
21:42 16.4 °C 9.3 °C 1011.7 hPa North 5.0 km/h 13.4 km/h 63% 0.0 mm 0 W/m2
21:47 16.3 °C 9.3 °C 1011.7 hPa NNE 6.1 km/h 13.4 km/h 63% 0.0 mm 0 W/m2
21:52 16.2 °C 9.2 °C 1012.1 hPa North 6.1 km/h 12.2 km/h 63% 0.0 mm 0 W/m2
21:57 16.1 °C 9.1 °C 1012.1 hPa North 7.2 km/h 14.8 km/h 63% 0.0 mm 0 W/m2
22:02 16.0 °C 8.9 °C 1011.7 hPa NNE 9.7 km/h 14.8 km/h 63% 0.0 mm 0 W/m2
22:07 16.0 °C 9.2 °C 1011.7 hPa NNE 6.1 km/h 14.8 km/h 64% 0.0 mm 0 W/m2
22:12 15.9 °C 9.3 °C 1011.7 hPa North 6.1 km/h 14.8 km/h 65% 0.0 mm 0 W/m2
22:17 15.9 °C 9.3 °C 1011.7 hPa North 12.2 km/h 15.8 km/h 65% 0.0 mm 0 W/m2
22:22 15.8 °C 9.2 °C 1011.7 hPa North 1.1 km/h 15.8 km/h 65% 0.0 mm 0 W/m2
22:27 15.8 °C 9.2 °C 1011.7 hPa North 5.0 km/h 15.8 km/h 65% 0.0 mm 0 W/m2
22:32 15.8 °C 9.2 °C 1011.7 hPa NNW 9.7 km/h 14.8 km/h 65% 0.0 mm 0 W/m2
22:37 15.7 °C 9.2 °C 1011.7 hPa NNW 3.5 km/h 18.3 km/h 65% 0.0 mm 0 W/m2
22:42 15.7 °C 9.2 °C 1011.7 hPa North 5.0 km/h 18.3 km/h 65% 0.0 mm 0 W/m2
22:47 15.7 °C 9.2 °C 1011.7 hPa NNE 2.6 km/h 15.8 km/h 65% 0.0 mm 0 W/m2
22:52 15.6 °C 9.1 °C 1011.7 hPa North 8.7 km/h 14.8 km/h 65% 0.0 mm 0 W/m2
22:57 15.4 °C 9.1 °C 1011.7 hPa North 6.1 km/h 15.8 km/h 66% 0.0 mm 0 W/m2
23:02 15.2 °C 8.9 °C 1011.7 hPa North 7.2 km/h 15.8 km/h 66% 0.0 mm 0 W/m2
23:07 15.1 °C 8.8 °C 1011.7 hPa North 8.7 km/h 14.8 km/h 66% 0.0 mm 0 W/m2
23:12 15.1 °C 8.8 °C 1011.7 hPa North 11.1 km/h 17.2 km/h 66% 0.0 mm 0 W/m2
23:17 15.0 °C 8.7 °C 1011.4 hPa North 8.7 km/h 18.3 km/h 66% 0.0 mm 0 W/m2
23:22 14.9 °C 8.8 °C 1011.4 hPa North 1.1 km/h 18.3 km/h 67% 0.0 mm 0 W/m2
23:27 14.9 °C 8.8 °C 1011.7 hPa NNE 1.1 km/h 13.4 km/h 67% 0.0 mm 0 W/m2
23:32 14.8 °C 8.9 °C 1011.7 hPa Calm   12.2 km/h 68% 0.0 mm 0 W/m2
23:37 14.5 °C 8.7 °C 1011.4 hPa North 3.5 km/h 7.2 km/h 68% 0.0 mm 0 W/m2
23:42 14.4 °C 8.8 °C 1011.4 hPa Calm   7.2 km/h 69% 0.0 mm 0 W/m2
23:47 14.2 °C 8.8 °C 1011.7 hPa Calm   6.1 km/h 70% 0.0 mm 0 W/m2
23:52 13.9 °C 8.7 °C 1011.4 hPa Calm   3.5 km/h 71% 0.0 mm 0 W/m2
23:57 13.9 °C 8.9 °C 1011.4 hPa Calm   3.5 km/h 72% 0.0 mm 0 W/m2
Northern Hawkes Bay. New Zealand Historic Data
Compliments of Weather Underground - 2 mb